sensor_id;sensor_type;location;lat;lon;timestamp;temperature;humidity
6863;DHT22;3470;48.738;9.616;2022-09-09T17:36:32;18.40;79.70
6863;DHT22;3470;48.738;9.616;2022-09-09T17:38:58;18.00;81.50
6863;DHT22;3470;48.738;9.616;2022-09-09T17:41:31;17.80;81.90
6863;DHT22;3470;48.738;9.616;2022-09-09T19:00:00;15.50;90.30
6863;DHT22;3470;48.738;9.616;2022-09-09T19:02:26;15.50;90.70
6863;DHT22;3470;48.738;9.616;2022-09-09T19:04:52;15.50;91.10
6863;DHT22;3470;48.738;9.616;2022-09-09T19:07:18;15.50;91.30
6863;DHT22;3470;48.738;9.616;2022-09-09T19:09:44;15.50;91.00
6863;DHT22;3470;48.738;9.616;2022-09-09T19:12:10;15.50;91.00
6863;DHT22;3470;48.738;9.616;2022-09-09T19:14:35;15.70;91.30
6863;DHT22;3470;48.738;9.616;2022-09-09T19:17:02;15.70;91.30
6863;DHT22;3470;48.738;9.616;2022-09-09T19:19:30;15.70;91.10
6863;DHT22;3470;48.738;9.616;2022-09-09T19:21:57;15.70;91.70
6863;DHT22;3470;48.738;9.616;2022-09-09T19:24:25;15.70;91.40
6863;DHT22;3470;48.738;9.616;2022-09-09T19:26:54;15.60;91.40
6863;DHT22;3470;48.738;9.616;2022-09-09T19:29:24;15.60;91.60
6863;DHT22;3470;48.738;9.616;2022-09-09T19:31:51;15.60;92.50
6863;DHT22;3470;48.738;9.616;2022-09-09T19:34:17;15.60;92.60
6863;DHT22;3470;48.738;9.616;2022-09-09T19:36:44;15.50;92.90
6863;DHT22;3470;48.738;9.616;2022-09-09T19:39:11;15.40;93.20
6863;DHT22;3470;48.738;9.616;2022-09-09T19:41:37;15.30;93.50
6863;DHT22;3470;48.738;9.616;2022-09-09T19:44:05;15.20;93.00
6863;DHT22;3470;48.738;9.616;2022-09-09T19:46:36;15.10;93.30
6863;DHT22;3470;48.738;9.616;2022-09-09T19:49:03;15.00;93.20
6863;DHT22;3470;48.738;9.616;2022-09-09T19:51:30;15.10;93.00
6863;DHT22;3470;48.738;9.616;2022-09-09T19:53:59;15.00;93.00
6863;DHT22;3470;48.738;9.616;2022-09-09T19:56:28;14.90;93.10
6863;DHT22;3470;48.738;9.616;2022-09-09T19:58:55;14.80;93.20
6863;DHT22;3470;48.738;9.616;2022-09-09T20:01:24;14.80;93.30
6863;DHT22;3470;48.738;9.616;2022-09-09T20:03:51;14.90;93.00
6863;DHT22;3470;48.738;9.616;2022-09-09T20:06:20;14.90;92.80
6863;DHT22;3470;48.738;9.616;2022-09-09T20:08:48;14.90;93.50
6863;DHT22;3470;48.738;9.616;2022-09-09T20:11:15;14.90;93.50
6863;DHT22;3470;48.738;9.616;2022-09-09T20:13:41;14.90;93.70
6863;DHT22;3470;48.738;9.616;2022-09-09T20:16:09;14.90;93.80
6863;DHT22;3470;48.738;9.616;2022-09-09T20:18:37;14.90;93.90
6863;DHT22;3470;48.738;9.616;2022-09-09T20:21:09;14.80;94.20
6863;DHT22;3470;48.738;9.616;2022-09-09T20:23:35;14.90;94.80
6863;DHT22;3470;48.738;9.616;2022-09-09T20:26:12;14.90;94.60
6863;DHT22;3470;48.738;9.616;2022-09-09T20:28:40;15.00;94.70
6863;DHT22;3470;48.738;9.616;2022-09-09T20:31:08;15.00;94.60
6863;DHT22;3470;48.738;9.616;2022-09-09T20:33:36;15.00;94.70
6863;DHT22;3470;48.738;9.616;2022-09-09T20:36:19;15.00;94.70
6863;DHT22;3470;48.738;9.616;2022-09-09T20:38:49;14.90;94.90
6863;DHT22;3470;48.738;9.616;2022-09-09T20:41:18;14.90;95.10
6863;DHT22;3470;48.738;9.616;2022-09-09T20:43:53;14.80;95.40
6863;DHT22;3470;48.738;9.616;2022-09-09T20:46:22;14.60;95.80
6863;DHT22;3470;48.738;9.616;2022-09-09T20:48:49;14.50;96.10
6863;DHT22;3470;48.738;9.616;2022-09-09T20:51:21;14.50;96.40
6863;DHT22;3470;48.738;9.616;2022-09-09T20:53:55;14.40;96.60
6863;DHT22;3470;48.738;9.616;2022-09-09T20:56:22;14.50;96.50
6863;DHT22;3470;48.738;9.616;2022-09-09T20:58:48;14.50;96.50
6863;DHT22;3470;48.738;9.616;2022-09-09T21:01:16;14.60;96.60
6863;DHT22;3470;48.738;9.616;2022-09-09T21:03:42;14.60;96.70
6863;DHT22;3470;48.738;9.616;2022-09-09T21:06:09;14.60;96.70
6863;DHT22;3470;48.738;9.616;2022-09-09T21:08:35;14.70;96.70
6863;DHT22;3470;48.738;9.616;2022-09-09T21:11:02;14.70;96.70
6863;DHT22;3470;48.738;9.616;2022-09-09T21:13:31;14.70;96.80
6863;DHT22;3470;48.738;9.616;2022-09-09T21:15:57;14.70;96.90
6863;DHT22;3470;48.738;9.616;2022-09-09T21:18:23;14.70;97.00
6863;DHT22;3470;48.738;9.616;2022-09-09T21:20:50;14.70;96.90
6863;DHT22;3470;48.738;9.616;2022-09-09T21:23:17;14.70;96.90
6863;DHT22;3470;48.738;9.616;2022-09-09T21:25:43;14.70;97.00
6863;DHT22;3470;48.738;9.616;2022-09-09T21:28:09;14.70;97.40
6863;DHT22;3470;48.738;9.616;2022-09-09T21:30:37;14.70;97.20
6863;DHT22;3470;48.738;9.616;2022-09-09T21:33:07;14.70;97.20
6863;DHT22;3470;48.738;9.616;2022-09-09T21:35:38;14.70;97.20
6863;DHT22;3470;48.738;9.616;2022-09-09T21:38:14;14.70;97.40
6863;DHT22;3470;48.738;9.616;2022-09-09T21:40:42;14.60;97.50
6863;DHT22;3470;48.738;9.616;2022-09-09T21:43:11;14.60;97.60
6863;DHT22;3470;48.738;9.616;2022-09-09T21:45:38;14.60;97.80
6863;DHT22;3470;48.738;9.616;2022-09-09T21:48:06;14.50;97.90
6863;DHT22;3470;48.738;9.616;2022-09-09T21:50:39;14.40;98.20
6863;DHT22;3470;48.738;9.616;2022-09-09T21:53:05;14.30;98.50
6863;DHT22;3470;48.738;9.616;2022-09-09T21:55:36;14.10;98.80
6863;DHT22;3470;48.738;9.616;2022-09-09T21:58:03;14.10;99.10
6863;DHT22;3470;48.738;9.616;2022-09-09T22:00:29;14.00;99.40
6863;DHT22;3470;48.738;9.616;2022-09-09T22:02:55;13.80;99.80
6863;DHT22;3470;48.738;9.616;2022-09-09T22:05:21;13.80;99.90
6863;DHT22;3470;48.738;9.616;2022-09-09T22:07:46;13.70;99.90
6863;DHT22;3470;48.738;9.616;2022-09-09T22:10:12;13.60;99.90
6863;DHT22;3470;48.738;9.616;2022-09-09T22:12:37;13.50;99.90
6863;DHT22;3470;48.738;9.616;2022-09-09T22:15:04;13.50;99.90
6863;DHT22;3470;48.738;9.616;2022-09-09T22:17:33;13.50;99.90
6863;DHT22;3470;48.738;9.616;2022-09-09T22:19:58;13.50;99.90
6863;DHT22;3470;48.738;9.616;2022-09-09T22:22:24;13.50;99.90
6863;DHT22;3470;48.738;9.616;2022-09-09T22:24:49;13.50;99.90
6863;DHT22;3470;48.738;9.616;2022-09-09T22:27:16;13.60;99.90
6863;DHT22;3470;48.738;9.616;2022-09-09T22:29:41;13.60;99.90
6863;DHT22;3470;48.738;9.616;2022-09-09T22:32:08;13.60;99.90
6863;DHT22;3470;48.738;9.616;2022-09-09T22:34:35;13.60;99.90
6863;DHT22;3470;48.738;9.616;2022-09-09T22:37:01;13.60;99.90
6863;DHT22;3470;48.738;9.616;2022-09-09T22:39:27;13.60;99.90
6863;DHT22;3470;48.738;9.616;2022-09-09T22:41:53;13.70;99.90
6863;DHT22;3470;48.738;9.616;2022-09-09T22:44:22;13.70;99.90
6863;DHT22;3470;48.738;9.616;2022-09-09T22:46:48;13.70;99.90
6863;DHT22;3470;48.738;9.616;2022-09-09T22:49:14;13.70;99.90
6863;DHT22;3470;48.738;9.616;2022-09-09T22:51:39;13.70;99.90
6863;DHT22;3470;48.738;9.616;2022-09-09T22:54:05;13.80;99.90
6863;DHT22;3470;48.738;9.616;2022-09-09T22:56:32;13.80;99.90
6863;DHT22;3470;48.738;9.616;2022-09-09T22:58:58;13.90;99.90
6863;DHT22;3470;48.738;9.616;2022-09-09T23:01:25;13.90;99.90
6863;DHT22;3470;48.738;9.616;2022-09-09T23:03:53;14.00;99.90
6863;DHT22;3470;48.738;9.616;2022-09-09T23:06:23;14.00;99.90
6863;DHT22;3470;48.738;9.616;2022-09-09T23:08:51;14.00;99.90
6863;DHT22;3470;48.738;9.616;2022-09-09T23:11:18;14.00;99.90
6863;DHT22;3470;48.738;9.616;2022-09-09T23:13:51;13.90;99.90
6863;DHT22;3470;48.738;9.616;2022-09-09T23:16:23;14.00;99.90
6863;DHT22;3470;48.738;9.616;2022-09-09T23:18:49;14.00;99.90
6863;DHT22;3470;48.738;9.616;2022-09-09T23:21:17;14.10;99.90
6863;DHT22;3470;48.738;9.616;2022-09-09T23:23:44;14.20;99.90
6863;DHT22;3470;48.738;9.616;2022-09-09T23:26:12;14.30;99.90
6863;DHT22;3470;48.738;9.616;2022-09-09T23:28:38;14.40;99.90
6863;DHT22;3470;48.738;9.616;2022-09-09T23:31:12;14.40;99.90
6863;DHT22;3470;48.738;9.616;2022-09-09T23:33:40;14.40;99.90
6863;DHT22;3470;48.738;9.616;2022-09-09T23:36:09;14.50;99.90
6863;DHT22;3470;48.738;9.616;2022-09-09T23:38:36;14.50;99.90
6863;DHT22;3470;48.738;9.616;2022-09-09T23:41:05;14.40;99.90
6863;DHT22;3470;48.738;9.616;2022-09-09T23:43:31;14.30;99.90
6863;DHT22;3470;48.738;9.616;2022-09-09T23:45:59;14.20;99.90
6863;DHT22;3470;48.738;9.616;2022-09-09T23:48:25;14.10;99.90
6863;DHT22;3470;48.738;9.616;2022-09-09T23:50:52;14.00;99.90
6863;DHT22;3470;48.738;9.616;2022-09-09T23:53:19;13.90;99.90
6863;DHT22;3470;48.738;9.616;2022-09-09T23:55:44;13.90;99.90
6863;DHT22;3470;48.738;9.616;2022-09-09T23:58:10;13.90;99.90
